Terminal Aerodrome Forecast
Issued by NWS Sioux Falls, SD

Home | Current Version | Previous Version | Graphics & Text | Print | Product List | Glossary Off
Versions: 1 2 3 4 5 6 7 8 9 10 11 12 13 14 15 16 17 18 19 20 21 22 23 24 25 26

028
FTUS43 KFSD 221120
TAFSUX
TAF
KSUX 221120Z 2212/2312 VRB04KT P6SM SCT250
     FM221500 28005KT P6SM SKC
     FM221800 24009KT P6SM SKC
     FM222300 18006KT P6SM FEW250
     FM230600 15007KT P6SM SCT120
     FM231000 26012KT P6SM BKN110=

USA.gov is the U.S. government's official web portal to all federal, state and local government web resources and services.